Time;durP1;ratioP1;P1;durP2;ratioP2;P2;SDS_P1;SDS_P2;PMS_P1;PMS_P2;Temp;Humidity;BMP_temperature;BMP_pressure;BME280_temperature;BME280_humidity;BME280_pressure;Samples;Min_cycle;Max_cycle;Signal;HPM_P1;HPM_P2
2022/09/23 00:02:11;;;;;;;;;;;;;;;;;;5016414;28;19997;-68
2022/09/23 00:04:37;;;;;;;;;;;;;;;;;;5016914;28;20357;-68
2022/09/23 00:07:03;;;;;;;;;;;;;;;;;;5016548;28;19912;-67
2022/09/23 00:09:28;;;;;;;;;;;;;;;;;;5016223;28;20388;-69
2022/09/23 00:11:54;;;;;;;;;;;;;;;;;;5016209;28;19905;-68
2022/09/23 00:14:20;;;;;;;;;;;;;;;;;;5016437;28;20344;-69
2022/09/23 00:16:46;;;;;;;;;;;;;;;;;;5016104;28;19909;-69
2022/09/23 00:19:12;;;;;;;;;;;;;;;;;;5016316;28;19909;-68
2022/09/23 00:21:38;;;;;;;;;;;;;;;;;;5016282;28;19913;-69
2022/09/23 00:24:04;;;;;;;;;;;;;;;;;;5016006;28;19905;-69
2022/09/23 00:26:30;;;;;;;;;;;;;;;;;;5016188;28;19912;-68
2022/09/23 00:28:56;;;;;;;;;;;;;;;;;;5015879;28;19928;-68
2022/09/23 00:31:22;;;;;;;;;;;;;;;;;;5015974;28;20045;-69
2022/09/23 00:33:48;;;;;;;;;;;;;;;;;;5016394;28;19906;-69
2022/09/23 00:36:16;;;;;;;;;;;;;;;;;;5015530;28;20020;-69
2022/09/23 00:38:42;;;;;;;;;;;;;;;;;;5016226;28;19915;-69
2022/09/23 00:41:08;;;;;;;;;;;;;;;;;;5015955;28;19948;-69
2022/09/23 00:43:34;;;;;;;;;;;;;;;;;;5015623;28;20350;-69
2022/09/23 00:46:00;;;;;;;;;;;;;;;;;;5016109;28;19959;-69
2022/09/23 00:48:26;;;;;;;;;;;;;;;;;;5015475;28;19909;-69
2022/09/23 00:50:53;;;;;;;;;;;;;;;;;;5015484;28;19913;-68
2022/09/23 00:53:20;;;;;;;;;;;;;;;;;;5015430;28;20000;-69
2022/09/23 00:55:45;;;;;;;;;;;;;;;;;;5015277;28;19915;-69
2022/09/23 00:58:11;;;;;;;;;;;;;;;;;;5015573;28;19905;-69
2022/09/23 01:00:37;;;;;;;;;;;;;;;;;;5014842;28;20319;-69
2022/09/23 01:03:03;;;;;;;;;;;;;;;;;;5015769;28;19968;-68
2022/09/23 01:05:29;;;;;;;;;;;;;;;;;;5015467;28;19952;-68
2022/09/23 01:07:56;;;;;;;;;;;;;;;;;;5015679;28;19909;-69
2022/09/23 01:10:22;;;;;;;;;;;;;;;;;;5015114;28;19910;-69
2022/09/23 01:12:48;;;;;;;;;;;;;;;;;;5015091;28;19906;-69
2022/09/23 01:15:14;;;;;;;;;;;;;;;;;;5015023;28;19910;-69
2022/09/23 01:17:41;;;;;;;;;;;;;;;;;;5015006;28;19912;-68
2022/09/23 01:20:07;;;;;;;;;;;;;;;;;;4997052;28;19906;-69
2022/09/23 01:22:33;;;;;;;;;;;;;;;;;;5014884;28;19912;-68
2022/09/23 01:24:59;;;;;;;;;;;;;;;;;;5015457;28;19905;-69
2022/09/23 01:27:25;;;;;;;;;;;;;;;;;;5014818;28;19948;-68
2022/09/23 01:29:50;;;;;;;;;;;;;;;;;;5015345;28;19911;-68
2022/09/23 01:32:16;;;;;;;;;;;;;;;;;;5014951;28;19912;-68
2022/09/23 01:34:42;;;;;;;;;;;;;;;;;;5014444;28;20373;-69
2022/09/23 01:37:08;;;;;;;;;;;;;;;;;;5014920;28;19906;-69
2022/09/23 01:39:34;;;;;;;;;;;;;;;;;;5015121;28;20369;-69
2022/09/23 01:42:00;;;;;;;;;;;;;;;;;;5014567;28;19912;-69
2022/09/23 01:44:26;;;;;;;;;;;;;;;;;;5014790;28;19999;-69
2022/09/23 01:46:52;;;;;;;;;;;;;;;;;;5014755;28;19909;-69
2022/09/23 01:49:18;;;;;;;;;;;;;;;;;;5015008;28;19905;-69
2022/09/23 01:51:44;;;;;;;;;;;;;;;;;;5014418;28;19910;-68
2022/09/23 01:54:09;;;;;;;;;;;;;;;;;;5014650;28;20004;-68
2022/09/23 01:56:35;;;;;;;;;;;;;;;;;;5014544;28;20004;-69
2022/09/23 01:59:01;;;;;;;;;;;;;;;;;;4996629;28;19905;-68
2022/09/23 02:01:27;;;;;;;;;;;;;;;;;;4996600;28;19912;-69
2022/09/23 02:03:54;;;;;;;;;;;;;;;;;;5014238;28;19913;-69
2022/09/23 02:06:20;;;;;;;;;;;;;;;;;;5014445;28;19906;-69
2022/09/23 02:08:46;;;;;;;;;;;;;;;;;;5014164;28;20273;-68
2022/09/23 02:11:15;;;;;;;;;;;;;;;;;;5014112;28;19909;-69
2022/09/23 02:13:41;;;;;;;;;;;;;;;;;;5013922;28;19905;-69
2022/09/23 02:16:07;;;;;;;;;;;;;;;;;;5014014;28;19967;-68
2022/09/23 02:18:33;;;;;;;;;;;;;;;;;;5014286;28;19905;-68
2022/09/23 02:20:59;;;;;;;;;;;;;;;;;;5014026;28;19996;-69
2022/09/23 02:23:25;;;;;;;;;;;;;;;;;;5014043;28;19909;-69
2022/09/23 02:25:51;;;;;;;;;;;;;;;;;;5013920;28;19906;-69
2022/09/23 02:28:18;;;;;;;;;;;;;;;;;;5014210;28;19906;-69
2022/09/23 02:30:43;;;;;;;;;;;;;;;;;;5013927;28;19931;-68
2022/09/23 02:33:10;;;;;;;;;;;;;;;;;;5014072;28;19910;-69
2022/09/23 02:35:36;;;;;;;;;;;;;;;;;;5013592;28;19917;-68
2022/09/23 02:38:02;;;;;;;;;;;;;;;;;;5014086;28;19917;-70
2022/09/23 02:40:28;;;;;;;;;;;;;;;;;;5014313;28;20258;-69
2022/09/23 02:42:54;;;;;;;;;;;;;;;;;;5014368;28;19912;-69
2022/09/23 02:45:20;;;;;;;;;;;;;;;;;;5014564;28;19906;-69
2022/09/23 02:47:46;;;;;;;;;;;;;;;;;;5014051;28;19905;-69
2022/09/23 02:50:12;;;;;;;;;;;;;;;;;;5013730;28;20341;-69
2022/09/23 02:52:38;;;;;;;;;;;;;;;;;;5014000;28;19944;-69
2022/09/23 02:55:04;;;;;;;;;;;;;;;;;;4995951;28;19945;-68
2022/09/23 02:57:30;;;;;;;;;;;;;;;;;;5014248;28;19988;-69
2022/09/23 02:59:57;;;;;;;;;;;;;;;;;;5013613;28;19905;-69
2022/09/23 03:02:25;;;;;;;;;;;;;;;;;;5013629;28;19909;-69
2022/09/23 03:04:51;;;;;;;;;;;;;;;;;;5013627;28;19992;-68
2022/09/23 03:07:17;;;;;;;;;;;;;;;;;;5013592;28;20356;-69
2022/09/23 03:09:43;;;;;;;;;;;;;;;;;;5013830;28;19955;-68
2022/09/23 03:12:10;;;;;;;;;;;;;;;;;;5013787;28;19991;-68
2022/09/23 03:14:36;;;;;;;;;;;;;;;;;;5014006;28;20239;-67
2022/09/23 03:17:02;;;;;;;;;;;;;;;;;;5013807;28;19914;-69
2022/09/23 03:19:28;;;;;;;;;;;;;;;;;;5013515;28;19905;-69
2022/09/23 03:21:54;;;;;;;;;;;;;;;;;;5013446;28;20222;-68
2022/09/23 03:24:20;;;;;;;;;;;;;;;;;;5015328;28;19906;-69
2022/09/23 03:26:46;;;;;;;;;;;;;;;;;;5017038;28;19955;-68
2022/09/23 03:29:12;;;;;;;;;;;;;;;;;;5017013;28;19959;-68
2022/09/23 03:31:41;;;;;;;;;;;;;;;;;;5016900;28;19944;-69
2022/09/23 03:34:07;;;;;;;;;;;;;;;;;;5017440;28;19967;-68
2022/09/23 03:37:06;;;;;;;;;;;;;;;;;;5016356;28;20028;-69
2022/09/23 03:39:25;;;;;;;;;;;;;;;;;;5012802;28;19906;-69
2022/09/23 03:41:51;;;;;;;;;;;;;;;;;;5017346;28;20282;-69
2022/09/23 03:44:17;;;;;;;;;;;;;;;;;;5016730;28;19905;-69
2022/09/23 03:46:48;;;;;;;;;;;;;;;;;;5016686;28;19971;-69
2022/09/23 03:49:14;;;;;;;;;;;;;;;;;;4998819;28;19905;-69
2022/09/23 03:51:40;;;;;;;;;;;;;;;;;;5016889;28;19905;-69
2022/09/23 03:54:06;;;;;;;;;;;;;;;;;;5016538;28;19909;-69
2022/09/23 03:56:32;;;;;;;;;;;;;;;;;;5016413;28;19909;-69
2022/09/23 03:58:58;;;;;;;;;;;;;;;;;;5016756;28;19941;-69
2022/09/23 04:01:24;;;;;;;;;;;;;;;;;;5016381;28;19948;-69
2022/09/23 04:03:50;;;;;;;;;;;;;;;;;;5016357;28;19910;-68
2022/09/23 04:06:15;;;;;;;;;;;;;;;;;;5016321;28;19906;-69
2022/09/23 04:08:41;;;;;;;;;;;;;;;;;;5016308;28;19912;-69
2022/09/23 04:11:07;;;;;;;;;;;;;;;;;;5016519;28;19905;-69
2022/09/23 04:13:33;;;;;;;;;;;;;;;;;;5016193;28;19912;-69
2022/09/23 04:15:59;;;;;;;;;;;;;;;;;;5016625;28;20354;-68
2022/09/23 04:18:25;;;;;;;;;;;;;;;;;;5016113;28;19905;-68
2022/09/23 04:20:51;;;;;;;;;;;;;;;;;;5016632;28;19909;-68
2022/09/23 04:23:17;;;;;;;;;;;;;;;;;;5016013;28;19912;-67
2022/09/23 04:25:43;;;;;;;;;;;;;;;;;;5016196;28;19910;-68
2022/09/23 04:28:09;;;;;;;;;;;;;;;;;;5016174;28;19906;-68
2022/09/23 04:30:35;;;;;;;;;;;;;;;;;;4998259;28;19906;-69
2022/09/23 04:33:00;;;;;;;;;;;;;;;;;;5016311;28;20023;-69
2022/09/23 04:35:26;;;;;;;;;;;;;;;;;;5014722;28;19921;-68
2022/09/23 04:37:52;;;;;;;;;;;;;;;;;;5015760;28;19913;-69
2022/09/23 04:40:18;;;;;;;;;;;;;;;;;;5016494;28;19905;-69
2022/09/23 04:42:44;;;;;;;;;;;;;;;;;;5015626;28;19913;-68
2022/09/23 04:45:10;;;;;;;;;;;;;;;;;;5015865;28;19905;-69
2022/09/23 04:47:36;;;;;;;;;;;;;;;;;;5015535;28;20047;-69
2022/09/23 04:50:02;;;;;;;;;;;;;;;;;;5015528;28;19906;-69
2022/09/23 04:52:28;;;;;;;;;;;;;;;;;;5016005;28;19905;-68
2022/09/23 04:54:53;;;;;;;;;;;;;;;;;;5015301;28;19916;-69
2022/09/23 04:57:19;;;;;;;;;;;;;;;;;;5015636;28;19976;-67
2022/09/23 04:59:46;;;;;;;;;;;;;;;;;;5015608;28;19995;-68
2022/09/23 05:02:12;;;;;;;;;;;;;;;;;;5015297;28;20383;-68
2022/09/23 05:04:38;;;;;;;;;;;;;;;;;;5015262;28;19905;-69
2022/09/23 05:07:04;;;;;;;;;;;;;;;;;;5015249;28;19992;-69
2022/09/23 05:09:30;;;;;;;;;;;;;;;;;;5015452;28;19944;-70
2022/09/23 05:11:56;;;;;;;;;;;;;;;;;;5015119;28;20280;-69
2022/09/23 05:14:22;;;;;;;;;;;;;;;;;;5015054;28;20005;-69
2022/09/23 05:16:48;;;;;;;;;;;;;;;;;;5015256;28;19967;-69
2022/09/23 05:19:14;;;;;;;;;;;;;;;;;;5015486;28;19905;-69
2022/09/23 05:21:40;;;;;;;;;;;;;;;;;;5014945;28;19959;-69
2022/09/23 05:24:06;;;;;;;;;;;;;;;;;;5015437;28;20273;-69
2022/09/23 05:26:32;;;;;;;;;;;;;;;;;;5014841;28;20301;-68
2022/09/23 05:28:58;;;;;;;;;;;;;;;;;;5014752;28;19906;-68
2022/09/23 05:31:23;;;;;;;;;;;;;;;;;;5014722;28;19913;-69
2022/09/23 05:33:52;;;;;;;;;;;;;;;;;;5015313;28;19936;-69
2022/09/23 05:36:19;;;;;;;;;;;;;;;;;;5014208;28;19924;-68
2022/09/23 05:38:45;;;;;;;;;;;;;;;;;;5014630;28;19905;-69
2022/09/23 05:41:11;;;;;;;;;;;;;;;;;;5015125;28;20029;-68
2022/09/23 05:43:37;;;;;;;;;;;;;;;;;;4996860;28;19909;-69
2022/09/23 05:46:03;;;;;;;;;;;;;;;;;;5015048;28;19909;-70
2022/09/23 05:48:30;;;;;;;;;;;;;;;;;;5014718;28;20000;-69
2022/09/23 05:50:55;;;;;;;;;;;;;;;;;;5014460;28;19905;-68
2022/09/23 05:53:21;;;;;;;;;;;;;;;;;;5014400;28;20324;-69
2022/09/23 05:55:47;;;;;;;;;;;;;;;;;;5014265;28;19909;-69
2022/09/23 05:58:13;;;;;;;;;;;;;;;;;;5014591;28;20325;-68
2022/09/23 06:00:39;;;;;;;;;;;;;;;;;;5014532;28;20004;-69
2022/09/23 06:03:05;;;;;;;;;;;;;;;;;;5014285;28;19943;-69
2022/09/23 06:05:31;;;;;;;;;;;;;;;;;;5014470;28;19949;-69
2022/09/23 06:07:58;;;;;;;;;;;;;;;;;;5014447;28;19905;-69
2022/09/23 06:10:25;;;;;;;;;;;;;;;;;;5014153;28;19913;-69
2022/09/23 06:12:51;;;;;;;;;;;;;;;;;;4996502;28;20373;-68
2022/09/23 06:15:17;;;;;;;;;;;;;;;;;;5014021;28;20023;-68
2022/09/23 06:17:43;;;;;;;;;;;;;;;;;;5014340;28;19905;-69
2022/09/23 06:20:09;;;;;;;;;;;;;;;;;;5014015;28;19955;-69
2022/09/23 06:22:35;;;;;;;;;;;;;;;;;;5014824;28;20361;-69
2022/09/23 06:25:01;;;;;;;;;;;;;;;;;;5013984;28;19992;-68
2022/09/23 06:27:27;;;;;;;;;;;;;;;;;;5014201;28;19905;-69
2022/09/23 06:29:52;;;;;;;;;;;;;;;;;;5014192;28;19916;-69
2022/09/23 06:32:19;;;;;;;;;;;;;;;;;;5013826;28;19906;-69
2022/09/23 06:34:45;;;;;;;;;;;;;;;;;;5014047;28;19913;-69
2022/09/23 06:37:11;;;;;;;;;;;;;;;;;;5014411;28;20372;-69
2022/09/23 06:39:37;;;;;;;;;;;;;;;;;;5014337;28;20254;-68
2022/09/23 06:42:05;;;;;;;;;;;;;;;;;;5014085;28;20011;-69
2022/09/23 06:44:31;;;;;;;;;;;;;;;;;;5013792;28;19906;-67
2022/09/23 06:46:57;;;;;;;;;;;;;;;;;;5014051;28;20040;-69
2022/09/23 06:49:23;;;;;;;;;;;;;;;;;;5013778;28;20357;-69
2022/09/23 06:51:49;;;;;;;;;;;;;;;;;;5014016;28;19905;-68
2022/09/23 06:54:15;;;;;;;;;;;;;;;;;;5013742;28;19906;-68
2022/09/23 06:56:41;;;;;;;;;;;;;;;;;;5013602;28;19916;-68
2022/09/23 06:59:07;;;;;;;;;;;;;;;;;;5015850;28;19905;-69
2022/09/23 07:01:33;;;;;;;;;;;;;;;;;;5017878;28;19929;-68
2022/09/23 07:04:00;;;;;;;;;;;;;;;;;;5018096;28;19905;-69
2022/09/23 07:06:27;;;;;;;;;;;;;;;;;;5017501;28;19999;-68
2022/09/23 07:08:53;;;;;;;;;;;;;;;;;;4999640;28;19952;-70
2022/09/23 07:11:21;;;;;;;;;;;;;;;;;;5017651;28;19906;-69
2022/09/23 07:13:47;;;;;;;;;;;;;;;;;;5017295;28;19912;-67
2022/09/23 07:16:13;;;;;;;;;;;;;;;;;;4999594;28;19909;-70
2022/09/23 07:18:39;;;;;;;;;;;;;;;;;;5017225;28;19913;-68
2022/09/23 07:21:05;;;;;;;;;;;;;;;;;;5017505;28;19924;-68
2022/09/23 07:23:32;;;;;;;;;;;;;;;;;;5017185;28;19911;-69
2022/09/23 07:25:58;;;;;;;;;;;;;;;;;;5017101;28;19905;-70
2022/09/23 07:28:26;;;;;;;;;;;;;;;;;;5017602;28;20273;-72
2022/09/23 07:30:52;;;;;;;;;;;;;;;;;;5016934;28;19948;-71
2022/09/23 07:33:18;;;;;;;;;;;;;;;;;;5017243;28;19945;-71
2022/09/23 07:35:44;;;;;;;;;;;;;;;;;;5016631;28;19956;-69
2022/09/23 07:38:10;;;;;;;;;;;;;;;;;;5017178;28;19911;-69
2022/09/23 07:40:36;;;;;;;;;;;;;;;;;;5017393;28;20362;-69
2022/09/23 07:43:04;;;;;;;;;;;;;;;;;;5017376;28;19910;-69
2022/09/23 07:45:32;;;;;;;;;;;;;;;;;;5016791;28;19971;-69
2022/09/23 07:47:57;;;;;;;;;;;;;;;;;;5016663;28;19905;-69
2022/09/23 07:50:23;;;;;;;;;;;;;;;;;;5016930;28;20044;-69
2022/09/23 07:52:51;;;;;;;;;;;;;;;;;;5016586;28;19921;-69
2022/09/23 07:55:18;;;;;;;;;;;;;;;;;;5016783;28;19909;-70
2022/09/23 07:57:43;;;;;;;;;;;;;;;;;;5016564;28;19912;-70
2022/09/23 08:00:09;;;;;;;;;;;;;;;;;;5016717;28;19906;-69
2022/09/23 08:02:35;;;;;;;;;;;;;;;;;;5016713;28;19956;-70
2022/09/23 08:05:02;;;;;;;;;;;;;;;;;;5016912;28;19952;-70
2022/09/23 08:07:28;;;;;;;;;;;;;;;;;;5016302;28;19906;-76
2022/09/23 08:09:55;;;;;;;;;;;;;;;;;;5015341;28;19911;-71
2022/09/23 08:12:21;;;;;;;;;;;;;;;;;;5016011;28;19905;-72
2022/09/23 08:14:47;;;;;;;;;;;;;;;;;;5016639;28;20235;-72
2022/09/23 08:17:13;;;;;;;;;;;;;;;;;;5016117;28;19917;-71
2022/09/23 08:19:38;;;;;;;;;;;;;;;;;;5016372;28;19906;-72
2022/09/23 08:22:04;;;;;;;;;;;;;;;;;;5016020;28;19906;-70
2022/09/23 08:24:31;;;;;;;;;;;;;;;;;;5016570;28;19913;-71
2022/09/23 08:26:56;;;;;;;;;;;;;;;;;;5016019;28;19968;-70
2022/09/23 08:29:22;;;;;;;;;;;;;;;;;;5015897;28;20370;-73
2022/09/23 08:31:48;;;;;;;;;;;;;;;;;;5015822;28;20032;-72
2022/09/23 08:34:14;;;;;;;;;;;;;;;;;;5015853;28;19955;-71
2022/09/23 08:36:40;;;;;;;;;;;;;;;;;;5015555;28;19995;-70
2022/09/23 08:39:06;;;;;;;;;;;;;;;;;;5015724;28;19905;-71
2022/09/23 08:41:32;;;;;;;;;;;;;;;;;;5016251;28;19912;-71
2022/09/23 08:43:58;;;;;;;;;;;;;;;;;;5015936;28;19905;-72
2022/09/23 08:46:24;;;;;;;;;;;;;;;;;;5015571;28;20392;-71
2022/09/23 08:48:50;;;;;;;;;;;;;;;;;;5015560;28;19909;-71
2022/09/23 08:51:16;;;;;;;;;;;;;;;;;;5015808;28;20004;-70
2022/09/23 08:53:42;;;;;;;;;;;;;;;;;;4998484;28;20023;-73
2022/09/23 08:56:08;;;;;;;;;;;;;;;;;;5015387;28;19910;-71
2022/09/23 08:58:34;;;;;;;;;;;;;;;;;;5015674;28;19955;-73
2022/09/23 09:01:00;;;;;;;;;;;;;;;;;;5015328;28;20354;-72
2022/09/23 09:03:26;;;;;;;;;;;;;;;;;;5015289;28;19923;-71
2022/09/23 09:05:52;;;;;;;;;;;;;;;;;;5015237;28;19940;-70
2022/09/23 09:08:20;;;;;;;;;;;;;;;;;;5015734;28;20376;-72
2022/09/23 09:10:46;;;;;;;;;;;;;;;;;;5015177;28;19952;-72
2022/09/23 09:13:14;;;;;;;;;;;;;;;;;;5015387;28;19909;-72
2022/09/23 09:15:42;;;;;;;;;;;;;;;;;;5015003;28;19909;-71
2022/09/23 09:18:08;;;;;;;;;;;;;;;;;;5015331;28;19984;-71
2022/09/23 09:20:34;;;;;;;;;;;;;;;;;;4997336;28;19974;-71
2022/09/23 09:23:00;;;;;;;;;;;;;;;;;;5015194;28;20338;-71
2022/09/23 09:25:26;;;;;;;;;;;;;;;;;;5014907;28;19916;-70
2022/09/23 09:27:52;;;;;;;;;;;;;;;;;;5014879;28;20047;-71
2022/09/23 09:30:18;;;;;;;;;;;;;;;;;;5015349;28;20350;-72
2022/09/23 09:32:45;;;;;;;;;;;;;;;;;;5014733;28;19906;-72
2022/09/23 09:35:11;;;;;;;;;;;;;;;;;;5014636;28;19940;-72
2022/09/23 09:37:37;;;;;;;;;;;;;;;;;;5014691;28;20444;-71
2022/09/23 09:40:03;;;;;;;;;;;;;;;;;;5015705;28;19952;-73
2022/09/23 09:42:29;;;;;;;;;;;;;;;;;;5014593;28;19906;-71
2022/09/23 09:44:57;;;;;;;;;;;;;;;;;;5014546;28;20382;-71
2022/09/23 09:47:25;;;;;;;;;;;;;;;;;;5014481;28;20344;-71
2022/09/23 09:49:51;;;;;;;;;;;;;;;;;;5015039;28;19952;-70
2022/09/23 09:52:17;;;;;;;;;;;;;;;;;;5014714;28;19906;-74
2022/09/23 09:54:43;;;;;;;;;;;;;;;;;;5014678;28;19909;-70
2022/09/23 09:57:09;;;;;;;;;;;;;;;;;;5014371;28;19986;-71
2022/09/23 09:59:41;;;;;;;;;;;;;;;;;;5014351;28;19912;-74
2022/09/23 10:02:07;;;;;;;;;;;;;;;;;;5014588;28;19928;-71
2022/09/23 10:04:33;;;;;;;;;;;;;;;;;;5014514;28;20354;-71
2022/09/23 10:06:59;;;;;;;;;;;;;;;;;;5014736;28;19913;-72
2022/09/23 10:09:25;;;;;;;;;;;;;;;;;;5014476;28;19912;-71
2022/09/23 10:11:51;;;;;;;;;;;;;;;;;;5014407;28;19905;-72
2022/09/23 10:14:17;;;;;;;;;;;;;;;;;;5014118;28;19948;-69
2022/09/23 10:16:43;;;;;;;;;;;;;;;;;;5014519;28;20385;-72
2022/09/23 10:19:09;;;;;;;;;;;;;;;;;;5014309;28;19909;-71
2022/09/23 10:21:35;;;;;;;;;;;;;;;;;;5014040;28;20357;-71
2022/09/23 10:24:01;;;;;;;;;;;;;;;;;;5014003;28;19956;-71
2022/09/23 10:26:31;;;;;;;;;;;;;;;;;;5014226;28;19985;-72
2022/09/23 10:29:00;;;;;;;;;;;;;;;;;;5014248;28;20301;-70
2022/09/23 10:31:26;;;;;;;;;;;;;;;;;;5014064;28;19905;-73
2022/09/23 10:33:53;;;;;;;;;;;;;;;;;;5013213;28;20297;-71
2022/09/23 10:36:19;;;;;;;;;;;;;;;;;;5013499;28;19971;-72
2022/09/23 10:38:45;;;;;;;;;;;;;;;;;;5014122;28;19905;-71
2022/09/23 10:46:45;;;;;;;;;;;;;;;;;;5013783;28;19934;-70
2022/09/23 10:49:11;;;;;;;;;;;;;;;;;;4996219;28;19944;-70
2022/09/23 10:51:38;;;;;;;;;;;;;;;;;;5014299;28;19905;-72
2022/09/23 10:54:04;;;;;;;;;;;;;;;;;;5013763;28;19905;-72
2022/09/23 10:56:30;;;;;;;;;;;;;;;;;;5013647;28;20008;-71
2022/09/23 10:58:57;;;;;;;;;;;;;;;;;;5013962;28;19995;-70
2022/09/23 11:01:23;;;;;;;;;;;;;;;;;;5013659;28;19917;-71
2022/09/23 11:03:49;;;;;;;;;;;;;;;;;;5013665;28;19905;-71
2022/09/23 11:06:15;;;;;;;;;;;;;;;;;;5013691;28;20388;-71
2022/09/23 11:08:41;;;;;;;;;;;;;;;;;;5013596;28;19913;-70
2022/09/23 11:11:07;;;;;;;;;;;;;;;;;;5013574;28;19905;-71
2022/09/23 11:13:33;;;;;;;;;;;;;;;;;;5013534;28;20357;-71
2022/09/23 11:15:59;;;;;;;;;;;;;;;;;;5014024;28;19959;-72
2022/09/23 11:18:28;;;;;;;;;;;;;;;;;;5013472;28;19906;-71
2022/09/23 11:20:53;;;;;;;;;;;;;;;;;;5013507;28;19967;-72
2022/09/23 11:23:19;;;;;;;;;;;;;;;;;;5013457;28;19906;-70
2022/09/23 11:25:46;;;;;;;;;;;;;;;;;;5013694;28;19905;-70
2022/09/23 11:28:11;;;;;;;;;;;;;;;;;;4995854;28;19952;-72
2022/09/23 11:30:37;;;;;;;;;;;;;;;;;;5013655;28;19940;-71
2022/09/23 11:33:03;;;;;;;;;;;;;;;;;;5013301;28;19963;-70
2022/09/23 11:35:29;;;;;;;;;;;;;;;;;;5013221;28;19917;-72
2022/09/23 11:37:55;;;;;;;;;;;;;;;;;;5013867;28;19913;-71
2022/09/23 11:40:21;;;;;;;;;;;;;;;;;;5013807;28;19909;-72
2022/09/23 11:42:47;;;;;;;;;;;;;;;;;;5013821;28;19995;-72
2022/09/23 11:45:13;;;;;;;;;;;;;;;;;;5014884;28;20277;-71
2022/09/23 11:47:41;;;;;;;;;;;;;;;;;;5017005;28;19905;-71
2022/09/23 11:50:08;;;;;;;;;;;;;;;;;;5016705;28;20321;-73
2022/09/23 11:52:34;;;;;;;;;;;;;;;;;;5016676;28;19956;-71
2022/09/23 11:55:00;;;;;;;;;;;;;;;;;;5016540;28;19909;-71
2022/09/23 11:57:26;;;;;;;;;;;;;;;;;;5017064;28;19917;-72
2022/09/23 11:59:52;;;;;;;;;;;;;;;;;;5016459;28;20009;-71
2022/09/23 12:02:19;;;;;;;;;;;;;;;;;;5017001;28;19905;-73
2022/09/23 12:04:44;;;;;;;;;;;;;;;;;;5016395;28;19905;-72
2022/09/23 12:07:11;;;;;;;;;;;;;;;;;;5016639;28;19905;-71
2022/09/23 12:09:37;;;;;;;;;;;;;;;;;;5016355;28;19913;-71
2022/09/23 12:12:04;;;;;;;;;;;;;;;;;;5016617;28;19932;-71
2022/09/23 12:14:30;;;;;;;;;;;;;;;;;;5016263;28;19905;-70
2022/09/23 12:16:56;;;;;;;;;;;;;;;;;;5016388;28;19909;-71
2022/09/23 12:19:22;;;;;;;;;;;;;;;;;;5016429;28;20255;-72
2022/09/23 12:21:48;;;;;;;;;;;;;;;;;;5016371;28;19996;-72
2022/09/23 12:24:15;;;;;;;;;;;;;;;;;;5016060;28;19912;-71
2022/09/23 12:26:40;;;;;;;;;;;;;;;;;;5016045;28;20388;-71
2022/09/23 12:29:07;;;;;;;;;;;;;;;;;;5016490;28;19909;-74
2022/09/23 12:31:33;;;;;;;;;;;;;;;;;;5015701;28;19913;-73
2022/09/23 12:33:59;;;;;;;;;;;;;;;;;;5015836;28;19913;-71
2022/09/23 12:36:25;;;;;;;;;;;;;;;;;;5015354;28;19917;-73
2022/09/23 12:38:52;;;;;;;;;;;;;;;;;;5015814;28;19910;-72
2022/09/23 12:41:18;;;;;;;;;;;;;;;;;;5016272;28;20000;-70
2022/09/23 12:43:45;;;;;;;;;;;;;;;;;;5015718;28;20380;-72
2022/09/23 12:46:11;;;;;;;;;;;;;;;;;;5015638;28;19952;-72
2022/09/23 12:48:37;;;;;;;;;;;;;;;;;;5015578;28;19906;-72
2022/09/23 12:51:03;;;;;;;;;;;;;;;;;;5015823;28;19917;-72
2022/09/23 12:53:29;;;;;;;;;;;;;;;;;;5015806;28;19928;-72
2022/09/23 12:55:55;;;;;;;;;;;;;;;;;;5015286;28;19909;-73
2022/09/23 12:58:21;;;;;;;;;;;;;;;;;;5015211;28;19905;-73
2022/09/23 13:00:47;;;;;;;;;;;;;;;;;;5015590;28;19928;-73
2022/09/23 13:08:49;;;;;;;;;;;;;;;;;;5015034;28;19971;-72
2022/09/23 13:11:15;;;;;;;;;;;;;;;;;;5015149;28;19905;-70
2022/09/23 13:13:41;;;;;;;;;;;;;;;;;;5015175;28;19960;-73
2022/09/23 13:16:07;;;;;;;;;;;;;;;;;;5015617;28;19936;-72
2022/09/23 13:18:33;;;;;;;;;;;;;;;;;;5015307;28;19909;-71
2022/09/23 13:20:59;;;;;;;;;;;;;;;;;;5015232;28;19905;-71
2022/09/23 13:23:25;;;;;;;;;;;;;;;;;;4997195;28;20000;-72
2022/09/23 13:25:51;;;;;;;;;;;;;;;;;;5015460;28;19996;-73
2022/09/23 13:28:17;;;;;;;;;;;;;;;;;;5014885;28;19948;-71
2022/09/23 13:30:43;;;;;;;;;;;;;;;;;;5014836;28;20084;-72
2022/09/23 13:33:08;;;;;;;;;;;;;;;;;;5014692;28;20370;-71
2022/09/23 13:35:35;;;;;;;;;;;;;;;;;;5014141;28;19917;-72
2022/09/23 13:38:00;;;;;;;;;;;;;;;;;;5014380;28;19905;-71
2022/09/23 13:40:26;;;;;;;;;;;;;;;;;;5014719;28;20376;-71
2022/09/23 13:42:54;;;;;;;;;;;;;;;;;;5015445;28;19905;-72
2022/09/23 13:45:20;;;;;;;;;;;;;;;;;;5014593;28;19996;-72
2022/09/23 13:47:45;;;;;;;;;;;;;;;;;;5015078;28;19905;-71
2022/09/23 13:50:11;;;;;;;;;;;;;;;;;;5014816;28;19912;-73
2022/09/23 13:52:37;;;;;;;;;;;;;;;;;;5014468;28;20018;-72
2022/09/23 13:55:03;;;;;;;;;;;;;;;;;;5014890;28;19909;-70
2022/09/23 13:57:30;;;;;;;;;;;;;;;;;;5014654;28;19906;-72
2022/09/23 13:59:56;;;;;;;;;;;;;;;;;;4996518;28;19913;-70
2022/09/23 14:02:27;;;;;;;;;;;;;;;;;;5014325;28;19905;-71
2022/09/23 14:04:53;;;;;;;;;;;;;;;;;;4996605;28;19992;-71
2022/09/23 14:07:19;;;;;;;;;;;;;;;;;;5014297;28;19943;-71
2022/09/23 14:09:44;;;;;;;;;;;;;;;;;;5013468;28;19931;-71
2022/09/23 14:12:11;;;;;;;;;;;;;;;;;;5014165;28;19905;-72
2022/09/23 14:14:37;;;;;;;;;;;;;;;;;;5014449;28;20366;-72
2022/09/23 14:17:02;;;;;;;;;;;;;;;;;;5014331;28;19916;-71
2022/09/23 14:19:28;;;;;;;;;;;;;;;;;;5014656;28;19905;-71
2022/09/23 14:21:54;;;;;;;;;;;;;;;;;;4996427;28;20432;-71
2022/09/23 14:24:20;;;;;;;;;;;;;;;;;;5014100;28;19996;-72
2022/09/23 14:26:46;;;;;;;;;;;;;;;;;;5013970;28;19988;-71
2022/09/23 14:29:12;;;;;;;;;;;;;;;;;;5014242;28;19999;-72
2022/09/23 14:31:38;;;;;;;;;;;;;;;;;;5013935;28;19996;-71
2022/09/23 14:34:05;;;;;;;;;;;;;;;;;;5014209;28;19940;-71
2022/09/23 14:39:15;;;;;;;;;;;;;;;;;;5013681;28;20336;-72
2022/09/23 14:41:41;;;;;;;;;;;;;;;;;;5014405;28;19905;-73
2022/09/23 14:44:07;;;;;;;;;;;;;;;;;;5013862;28;20384;-72
2022/09/23 14:46:33;;;;;;;;;;;;;;;;;;5013777;28;19909;-71
2022/09/23 14:48:59;;;;;;;;;;;;;;;;;;5013774;28;19935;-71
2022/09/23 14:51:25;;;;;;;;;;;;;;;;;;5013738;28;19906;-71
2022/09/23 14:53:51;;;;;;;;;;;;;;;;;;5013733;28;19906;-72
2022/09/23 14:56:17;;;;;;;;;;;;;;;;;;5013944;28;19909;-71
2022/09/23 14:58:43;;;;;;;;;;;;;;;;;;5013691;28;20016;-71
2022/09/23 15:01:09;;;;;;;;;;;;;;;;;;5013685;28;19991;-72
2022/09/23 15:03:35;;;;;;;;;;;;;;;;;;5013930;28;19906;-72
2022/09/23 15:06:01;;;;;;;;;;;;;;;;;;5013641;28;19906;-73
2022/09/23 15:08:27;;;;;;;;;;;;;;;;;;5013626;28;20380;-71
2022/09/23 15:10:53;;;;;;;;;;;;;;;;;;5014146;28;19909;-71
2022/09/23 15:13:19;;;;;;;;;;;;;;;;;;5013483;28;19905;-74
2022/09/23 15:15:45;;;;;;;;;;;;;;;;;;5013597;28;19916;-72
2022/09/23 15:18:11;;;;;;;;;;;;;;;;;;5013489;28;19963;-72
2022/09/23 15:20:37;;;;;;;;;;;;;;;;;;5016120;28;20254;-72
2022/09/23 15:23:03;;;;;;;;;;;;;;;;;;5017499;28;19917;-71
2022/09/23 15:25:29;;;;;;;;;;;;;;;;;;5017231;28;19906;-73
2022/09/23 15:27:55;;;;;;;;;;;;;;;;;;5017423;28;19906;-72
2022/09/23 15:30:21;;;;;;;;;;;;;;;;;;5017372;28;19952;-71
2022/09/23 15:32:47;;;;;;;;;;;;;;;;;;5017088;28;19931;-72
2022/09/23 15:35:14;;;;;;;;;;;;;;;;;;5016752;28;19921;-71
2022/09/23 15:37:40;;;;;;;;;;;;;;;;;;5016969;28;20374;-72
2022/09/23 15:40:08;;;;;;;;;;;;;;;;;;5016942;28;19912;-71
2022/09/23 15:42:34;;;;;;;;;;;;;;;;;;5017369;28;19910;-73
2022/09/23 15:45:00;;;;;;;;;;;;;;;;;;5016779;28;19996;-71
2022/09/23 15:47:26;;;;;;;;;;;;;;;;;;5017322;28;19906;-70
2022/09/23 15:49:52;;;;;;;;;;;;;;;;;;5016758;28;19936;-72
2022/09/23 15:52:20;;;;;;;;;;;;;;;;;;5017226;28;19905;-70
2022/09/23 15:54:46;;;;;;;;;;;;;;;;;;5016611;28;19905;-72
2022/09/23 15:57:12;;;;;;;;;;;;;;;;;;5017047;28;20364;-72
2022/09/23 15:59:39;;;;;;;;;;;;;;;;;;5016525;28;20449;-71
2022/09/23 16:02:06;;;;;;;;;;;;;;;;;;5016548;28;19909;-72
2022/09/23 16:04:32;;;;;;;;;;;;;;;;;;5016458;28;19929;-71
2022/09/23 16:07:00;;;;;;;;;;;;;;;;;;5016720;28;19956;-72
2022/09/23 16:09:30;;;;;;;;;;;;;;;;;;5016393;28;20483;-72
2022/09/23 16:11:56;;;;;;;;;;;;;;;;;;5016935;28;20242;-72
2022/09/23 16:14:22;;;;;;;;;;;;;;;;;;5016272;28;19913;-72
2022/09/23 16:16:48;;;;;;;;;;;;;;;;;;5016461;28;19913;-71
2022/09/23 16:19:14;;;;;;;;;;;;;;;;;;4998575;28;19956;-71
2022/09/23 16:21:40;;;;;;;;;;;;;;;;;;5016685;28;19905;-73
2022/09/23 16:24:06;;;;;;;;;;;;;;;;;;5016104;28;19906;-71
2022/09/23 16:26:33;;;;;;;;;;;;;;;;;;5016060;28;20289;-71
2022/09/23 16:29:00;;;;;;;;;;;;;;;;;;5015999;28;20287;-73
2022/09/23 16:31:28;;;;;;;;;;;;;;;;;;5015433;28;20433;-73
2022/09/23 16:33:55;;;;;;;;;;;;;;;;;;5015915;28;19916;-72
2022/09/23 16:36:21;;;;;;;;;;;;;;;;;;5015614;28;20285;-70
2022/09/23 16:38:47;;;;;;;;;;;;;;;;;;5016402;28;19905;-71
2022/09/23 16:41:13;;;;;;;;;;;;;;;;;;5016283;28;19909;-70
2022/09/23 16:43:39;;;;;;;;;;;;;;;;;;5015699;28;20289;-72
2022/09/23 16:46:05;;;;;;;;;;;;;;;;;;5015694;28;19971;-70
2022/09/23 16:48:31;;;;;;;;;;;;;;;;;;5015946;28;19905;-72
2022/09/23 16:50:57;;;;;;;;;;;;;;;;;;5015600;28;19905;-70
2022/09/23 16:53:25;;;;;;;;;;;;;;;;;;5015829;28;20273;-70